Gulf Shores, AL (36542)

10:21 PM CDT on July 23, 2017 (GMT -0500)
Shady Lagoon | | Change Station

Elev 43 ft 30.25 °N, 87.78 °W | Updated 28 seconds ago

Partly Cloudy
Partly Cloudy
81.0 °F
Feels Like 85 °F
N
3.0
Wind Variable Wind from West

Today
High -- | Low -- °F
--% Chance of Precip.
Yesterday
High -- | Low -- °F
Precip. -- in
Pressure 29.92 in
Visibility 10.0 miles
Clouds Scattered Clouds 2200 ft
Mostly Cloudy 4100 ft
Overcast 6000 ft
Heat Index 85 °F
Dew Point 72 °F
Humidity 75%
Rainfall 0.05 in
Snow Depth Not available.
6:04 AM 7:50 PM
New Moon, 1% visible
METAR KJKA 240315Z AUTO 26005KT 10SM SCT022 BKN041 OVC060 27/26 A2992 RMK AO2 T02650255
Pressure 29.92 in
Visibility 10.0 miles
Clouds Scattered Clouds 2200 ft
Mostly Cloudy 4100 ft
Overcast 6000 ft
Heat Index 85 °F
Dew Point 72 °F
Humidity 75%
Rainfall 0.05 in
Snow Depth Not available.
6:04 AM 7:50 PM
New Moon, 1% visible
METAR KJKA 240315Z AUTO 26005KT 10SM SCT022 BKN041 OVC060 27/26 A2992 RMK AO2 T02650255

Get Severe Weather Alerts

Thanks for signing up!

Be on the lookout for a verification email in your inbox.

You'll start receiving the daily forecast at 6 AM.

×

10-Day Weather Forecast

Almanac

Astronomy

Jul. 23, 2017 Rise Set
Actual Time
Civil Twilight
Nautical Twilight
Astronomical Twilight
Moon
Length of Visible Light
Length of Day
Tomorrow will be .
, % of the Moon is Illuminated

Today's Extremes

State Highs State Lows

Community

WunderPhotos

Category 6

Welcome to Category 6. This is the collective home for Weather Underground's featured writeups by Dr. Jeff Masters (right), Bob Henson (left), Chris Burt, and other regular contributors.

Nearby

Air Quality

  Air Quality AQ Index Pollutant
Not available.

Snow Depth

Station Depth Elevation

Earthquake Activity

City Distance Mag. Time & Date
Minimum magnitude displayed is 2.5.

Coastal Water Temperatures

Place Temperature

Stations

Nearby Weather Stations

Station Location Temp. Windchill Dew Point Humidity Wind Precip. Elev Updated Type
                   

Watches & Warnings

There are currently no watches in effect.